createdAt,value
2023-05-01T00:00:47.085Z,27.83
2023-05-01T00:01:47.081Z,27.83
2023-05-01T00:02:47.194Z,27.83
2023-05-01T00:03:47.332Z,27.81
2023-05-01T00:04:47.208Z,27.80
2023-05-01T00:05:47.124Z,27.81
2023-05-01T00:06:47.275Z,27.80
2023-05-01T00:07:47.134Z,27.83
2023-05-01T00:08:47.146Z,27.83
2023-05-01T00:09:47.157Z,27.80
2023-05-01T00:10:47.164Z,27.80
2023-05-01T00:11:47.187Z,27.80
2023-05-01T00:12:47.198Z,27.84
2023-05-01T00:13:47.240Z,27.81
2023-05-01T00:14:47.205Z,27.81
2023-05-01T00:15:47.225Z,27.81
2023-05-01T00:16:47.270Z,27.83
2023-05-01T00:17:47.268Z,27.81
2023-05-01T00:18:47.237Z,27.80
2023-05-01T00:19:47.243Z,27.81
2023-05-01T00:20:47.261Z,27.81
2023-05-01T00:21:47.257Z,27.79
2023-05-01T00:22:47.276Z,27.80
2023-05-01T00:23:47.300Z,27.83
2023-05-01T00:24:47.297Z,27.80
2023-05-01T00:25:47.329Z,27.79
2023-05-01T00:26:47.319Z,27.80
2023-05-01T00:27:47.308Z,27.81
2023-05-01T00:28:47.336Z,27.81
2023-05-01T00:29:47.331Z,27.83
2023-05-01T00:30:47.363Z,27.79
2023-05-01T00:31:47.416Z,27.79
2023-05-01T00:32:47.375Z,27.80
2023-05-01T00:33:47.302Z,27.80
2023-05-01T00:34:47.295Z,27.80
2023-05-01T00:35:47.265Z,27.80
2023-05-01T00:36:48.639Z,27.79
2023-05-01T00:37:47.236Z,27.79
2023-05-01T00:38:47.198Z,27.79
2023-05-01T00:39:47.231Z,27.79
2023-05-01T00:40:47.226Z,27.79
2023-05-01T00:41:47.205Z,27.79
2023-05-01T00:42:47.133Z,27.79
2023-05-01T00:43:47.155Z,27.81
2023-05-01T00:44:47.094Z,27.79
2023-05-01T00:45:47.172Z,27.79
2023-05-01T00:46:47.075Z,27.79
2023-05-01T00:47:47.082Z,27.79
2023-05-01T00:48:47.041Z,27.79
2023-05-01T00:49:47.045Z,27.77
2023-05-01T00:50:47.023Z,27.77
2023-05-01T00:51:47.004Z,27.75
2023-05-01T00:52:46.988Z,27.79
2023-05-01T00:53:46.985Z,27.79
2023-05-01T00:54:46.973Z,27.75
2023-05-01T00:55:46.969Z,27.80
2023-05-01T00:56:46.941Z,27.77
2023-05-01T00:57:46.932Z,27.79
2023-05-01T00:58:46.894Z,27.75
2023-05-01T00:59:46.880Z,27.75
2023-05-01T01:00:46.879Z,27.77
2023-05-01T01:01:47.059Z,27.77
2023-05-01T01:02:46.914Z,27.75
2023-05-01T01:03:46.932Z,27.77
2023-05-01T01:04:47.014Z,27.77
2023-05-01T01:05:46.929Z,27.77
2023-05-01T01:06:47.048Z,27.77
2023-05-01T01:07:46.943Z,27.79
2023-05-01T01:08:46.966Z,27.77
2023-05-01T01:09:46.973Z,27.79
2023-05-01T01:10:46.998Z,27.77
2023-05-01T01:11:46.981Z,27.77
2023-05-01T01:12:47.012Z,27.75
2023-05-01T01:13:47.041Z,27.77
2023-05-01T01:14:47.024Z,27.75
2023-05-01T01:15:47.026Z,27.77
2023-05-01T01:16:47.192Z,27.75
2023-05-01T01:17:47.177Z,27.77
2023-05-01T01:18:47.071Z,27.74
2023-05-01T01:19:47.062Z,27.77
2023-05-01T01:20:47.092Z,27.75
2023-05-01T01:21:47.086Z,27.75
2023-05-01T01:22:47.096Z,27.75
2023-05-01T01:23:47.098Z,27.77
2023-05-01T01:24:47.124Z,27.77
2023-05-01T01:25:47.122Z,27.75
2023-05-01T01:26:47.138Z,27.75
2023-05-01T01:27:47.138Z,27.75
2023-05-01T01:28:47.162Z,27.74
2023-05-01T01:29:47.171Z,27.73
2023-05-01T01:30:47.214Z,27.74
2023-05-01T01:31:47.181Z,27.75
2023-05-01T01:32:47.239Z,27.74
2023-05-01T01:33:47.158Z,27.74
2023-05-01T01:34:47.145Z,27.77
2023-05-01T01:35:47.142Z,27.74
2023-05-01T01:36:47.101Z,27.75
2023-05-01T01:37:47.091Z,27.77
2023-05-01T01:38:47.059Z,27.74
2023-05-01T01:39:47.065Z,27.74
2023-05-01T01:40:47.034Z,27.75
2023-05-01T01:41:46.999Z,27.74
2023-05-01T01:42:46.981Z,27.74
2023-05-01T01:43:46.981Z,27.75
2023-05-01T01:44:46.941Z,27.74
2023-05-01T01:45:46.963Z,27.73
2023-05-01T01:46:47.016Z,27.75
2023-05-01T01:47:46.899Z,27.74
2023-05-01T01:48:46.863Z,27.74
2023-05-01T01:49:46.839Z,27.71
2023-05-01T01:50:46.832Z,27.73
2023-05-01T01:51:46.801Z,27.74
2023-05-01T01:52:46.788Z,27.74
2023-05-01T01:53:46.818Z,27.74
2023-05-01T01:54:46.811Z,27.73
2023-05-01T01:55:46.858Z,27.73
2023-05-01T01:56:46.857Z,27.74
2023-05-01T01:57:46.872Z,27.73
2023-05-01T01:58:46.869Z,27.74
2023-05-01T01:59:46.899Z,27.73
2023-05-01T02:00:46.939Z,27.73
2023-05-01T02:01:46.979Z,27.73
2023-05-01T02:02:47.076Z,27.73
2023-05-01T02:03:47.107Z,27.74
2023-05-01T02:04:46.990Z,27.75
2023-05-01T02:05:47.006Z,27.74
2023-05-01T02:06:47.077Z,27.71
2023-05-01T02:07:47.035Z,27.73
2023-05-01T02:08:47.063Z,27.74
2023-05-01T02:09:47.085Z,27.71
2023-05-01T02:10:47.107Z,27.71
2023-05-01T02:11:47.121Z,27.70
2023-05-01T02:12:47.136Z,27.71
2023-05-01T02:13:47.155Z,27.73
2023-05-01T02:14:47.159Z,27.73
2023-05-01T02:15:47.241Z,27.73
2023-05-01T02:16:47.201Z,27.75
2023-05-01T02:17:47.361Z,27.73
2023-05-01T02:18:47.271Z,27.73
2023-05-01T02:19:47.251Z,27.71
2023-05-01T02:20:47.277Z,27.71
2023-05-01T02:21:47.296Z,27.71
2023-05-01T02:22:47.295Z,27.73
2023-05-01T02:23:47.314Z,27.73
2023-05-01T02:24:47.319Z,27.70
2023-05-01T02:25:47.334Z,27.73
2023-05-01T02:26:47.343Z,27.73
2023-05-01T02:27:47.371Z,27.73
2023-05-01T02:28:47.383Z,27.73
2023-05-01T02:29:47.412Z,27.70
2023-05-01T02:30:47.439Z,27.70
2023-05-01T02:31:47.465Z,27.71
2023-05-01T02:32:47.509Z,27.70
2023-05-01T02:33:47.461Z,27.70
2023-05-01T02:34:47.468Z,27.73
2023-05-01T02:35:47.501Z,27.70
2023-05-01T02:36:47.492Z,27.70
2023-05-01T02:37:47.504Z,27.68
2023-05-01T02:38:47.521Z,27.70
2023-05-01T02:39:47.531Z,27.70
2023-05-01T02:40:47.557Z,27.70
2023-05-01T02:41:47.591Z,27.71
2023-05-01T02:42:47.603Z,27.71
2023-05-01T02:43:47.604Z,27.70
2023-05-01T02:44:47.611Z,27.71
2023-05-01T02:45:47.697Z,27.71
2023-05-01T02:46:47.633Z,27.74
2023-05-01T02:47:47.686Z,27.71
2023-05-01T02:48:47.644Z,27.77
2023-05-01T02:49:47.657Z,27.74
2023-05-01T02:50:47.667Z,27.77
2023-05-01T02:51:47.678Z,27.73
2023-05-01T02:52:47.668Z,27.73
2023-05-01T02:53:47.684Z,27.70
2023-05-01T02:54:47.688Z,27.64
2023-05-01T02:55:47.695Z,27.64
2023-05-01T02:56:47.717Z,27.58
2023-05-01T02:57:47.734Z,27.57
2023-05-01T02:58:47.738Z,27.56
2023-05-01T02:59:47.768Z,27.53
2023-05-01T03:00:47.883Z,27.47
2023-05-01T03:01:47.887Z,27.45
2023-05-01T03:02:47.917Z,27.40
2023-05-01T03:03:47.928Z,27.37
2023-05-01T03:04:47.907Z,27.37
2023-05-01T03:05:48.099Z,27.35
2023-05-01T03:06:48.074Z,27.30
2023-05-01T03:07:47.977Z,27.29
2023-05-01T03:08:48.036Z,27.28
2023-05-01T03:09:48.048Z,27.24
2023-05-01T03:10:48.120Z,27.22
2023-05-01T03:11:48.129Z,27.19
2023-05-01T03:12:48.189Z,27.15
2023-05-01T03:13:48.219Z,27.15
2023-05-01T03:14:48.276Z,27.12
2023-05-01T03:15:48.322Z,27.11
2023-05-01T03:16:48.460Z,27.08
2023-05-01T03:17:48.463Z,27.05
2023-05-01T03:18:48.455Z,27.04
2023-05-01T03:19:48.546Z,27.04
2023-05-01T03:20:48.565Z,27.01
2023-05-01T03:21:48.636Z,26.98
2023-05-01T03:22:48.750Z,26.95
2023-05-01T03:23:48.842Z,26.94
2023-05-01T03:24:48.837Z,26.94
2023-05-01T03:25:48.835Z,26.93
2023-05-01T03:26:48.932Z,26.91
2023-05-01T03:27:48.953Z,26.90
2023-05-01T03:28:48.993Z,26.91
2023-05-01T03:29:48.984Z,26.85
2023-05-01T03:30:48.999Z,26.84
2023-05-01T03:31:49.009Z,26.84
2023-05-01T03:32:49.007Z,26.85
2023-05-01T03:33:48.987Z,26.83
2023-05-01T03:34:48.926Z,26.78
2023-05-01T03:35:49.079Z,26.81
2023-05-01T03:36:48.905Z,26.77
2023-05-01T03:37:48.932Z,26.77
2023-05-01T03:38:48.906Z,26.76
2023-05-01T03:39:48.924Z,26.77
2023-05-01T03:40:48.943Z,26.73
2023-05-01T03:41:48.937Z,26.76
2023-05-01T03:42:48.895Z,26.74
2023-05-01T03:43:48.855Z,26.71
2023-05-01T03:44:48.819Z,26.73
2023-05-01T03:45:48.845Z,26.71
2023-05-01T03:46:48.804Z,26.71
2023-05-01T03:47:48.855Z,26.71
2023-05-01T03:48:48.803Z,26.68
2023-05-01T03:49:48.797Z,26.70
2023-05-01T03:50:48.802Z,26.68
2023-05-01T03:51:48.832Z,26.67
2023-05-01T03:52:48.818Z,26.66
2023-05-01T03:53:48.781Z,26.64
2023-05-01T03:54:48.778Z,26.64
2023-05-01T03:55:48.778Z,26.60
2023-05-01T03:56:48.780Z,26.61
2023-05-01T03:57:48.767Z,26.60
2023-05-01T03:58:48.768Z,26.59
2023-05-01T03:59:48.742Z,26.59
2023-05-01T04:00:48.741Z,26.59
2023-05-01T04:01:48.733Z,26.59
2023-05-01T04:02:48.930Z,26.59
2023-05-01T04:03:48.837Z,26.57
2023-05-01T04:04:48.710Z,26.54
2023-05-01T04:05:48.716Z,26.54
2023-05-01T04:06:48.797Z,26.53
2023-05-01T04:07:48.705Z,26.54
2023-05-01T04:08:48.696Z,26.53
2023-05-01T04:09:48.673Z,26.51
2023-05-01T04:10:48.696Z,26.53
2023-05-01T04:11:48.662Z,26.50
2023-05-01T04:12:48.655Z,26.50
2023-05-01T04:13:48.678Z,26.49
2023-05-01T04:14:48.655Z,26.47
2023-05-01T04:15:48.719Z,26.47
2023-05-01T04:16:48.648Z,26.46
2023-05-01T04:17:48.721Z,26.46
2023-05-01T04:18:48.664Z,26.44
2023-05-01T04:19:48.648Z,26.46
2023-05-01T04:20:48.617Z,26.46
2023-05-01T04:21:48.617Z,26.44
2023-05-01T04:22:48.644Z,26.42
2023-05-01T04:23:48.590Z,26.43
2023-05-01T04:24:48.597Z,26.42
2023-05-01T04:25:48.586Z,26.42
2023-05-01T04:26:48.584Z,26.39
2023-05-01T04:27:48.577Z,26.40
2023-05-01T04:28:48.580Z,26.39
2023-05-01T04:29:48.598Z,26.39
2023-05-01T04:30:48.577Z,26.39
2023-05-01T04:31:48.648Z,26.38
2023-05-01T04:32:48.610Z,26.38
2023-05-01T04:33:48.565Z,26.38
2023-05-01T04:34:48.557Z,26.35
2023-05-01T04:35:48.535Z,26.39
2023-05-01T04:36:48.529Z,26.36
2023-05-01T04:37:48.536Z,26.35
2023-05-01T04:38:48.540Z,26.36
2023-05-01T04:39:48.521Z,26.33
2023-05-01T04:40:48.532Z,26.33
2023-05-01T04:41:48.541Z,26.33
2023-05-01T04:42:48.510Z,26.33
2023-05-01T04:43:48.513Z,26.32
2023-05-01T04:44:48.540Z,26.32
2023-05-01T04:45:48.488Z,26.36
2023-05-01T04:46:48.529Z,26.33
2023-05-01T04:47:48.523Z,26.33
2023-05-01T04:48:48.474Z,26.31
2023-05-01T04:49:48.460Z,26.29
2023-05-01T04:50:48.460Z,26.31
2023-05-01T04:51:48.461Z,26.29
2023-05-01T04:52:48.470Z,26.31
2023-05-01T04:53:48.463Z,26.29
2023-05-01T04:54:48.469Z,26.32
2023-05-01T04:55:48.454Z,26.31
2023-05-01T04:56:48.457Z,26.28
2023-05-01T04:57:48.436Z,26.29
2023-05-01T04:58:48.435Z,26.29
2023-05-01T04:59:48.480Z,26.31
2023-05-01T05:00:48.484Z,26.28
2023-05-01T05:01:48.556Z,26.28
2023-05-01T05:02:48.610Z,26.28
2023-05-01T05:03:50.200Z,26.29
2023-05-01T05:04:48.554Z,26.26
2023-05-01T05:05:48.559Z,26.26
2023-05-01T05:06:48.753Z,26.25
2023-05-01T05:07:48.574Z,26.23
2023-05-01T05:08:48.543Z,26.26
2023-05-01T05:09:48.549Z,26.23
2023-05-01T05:10:48.561Z,26.22
2023-05-01T05:11:48.572Z,26.22
2023-05-01T05:12:48.559Z,26.25
2023-05-01T05:13:48.576Z,26.21
2023-05-01T05:14:48.554Z,26.25
2023-05-01T05:15:48.545Z,26.21
2023-05-01T05:16:48.658Z,26.25
2023-05-01T05:17:48.610Z,26.23
2023-05-01T05:18:48.570Z,26.23
2023-05-01T05:19:48.549Z,26.22
2023-05-01T05:20:48.587Z,26.19
2023-05-01T05:21:48.573Z,26.21
2023-05-01T05:22:48.557Z,26.22
2023-05-01T05:23:48.568Z,26.22
2023-05-01T05:24:48.565Z,26.25
2023-05-01T05:25:48.565Z,26.23
2023-05-01T05:26:48.578Z,26.23
2023-05-01T05:27:48.564Z,26.21
2023-05-01T05:28:48.597Z,26.22
2023-05-01T05:29:48.571Z,26.22
2023-05-01T05:30:48.571Z,26.19
2023-05-01T05:31:48.664Z,26.21
2023-05-01T05:32:48.590Z,26.18
2023-05-01T05:33:48.590Z,26.16
2023-05-01T05:34:48.569Z,26.18
2023-05-01T05:35:48.572Z,26.18
2023-05-01T05:36:48.579Z,26.14
2023-05-01T05:37:48.611Z,26.14
2023-05-01T05:38:48.655Z,26.16
2023-05-01T05:39:48.679Z,26.15
2023-05-01T05:40:48.733Z,26.16
2023-05-01T05:41:48.781Z,26.15
2023-05-01T05:42:48.820Z,26.16
2023-05-01T05:43:48.855Z,26.16
2023-05-01T05:44:48.901Z,26.16
2023-05-01T05:45:48.972Z,26.14
2023-05-01T05:46:48.986Z,26.12
2023-05-01T05:47:49.060Z,26.14
2023-05-01T05:48:49.071Z,26.12
2023-05-01T05:49:49.115Z,26.12
2023-05-01T05:50:49.149Z,26.14
2023-05-01T05:51:49.191Z,26.12
2023-05-01T05:52:49.241Z,26.11
2023-05-01T05:53:49.272Z,26.12
2023-05-01T05:54:49.298Z,26.12
2023-05-01T05:55:49.349Z,26.12
2023-05-01T05:56:49.395Z,26.12
2023-05-01T05:57:49.401Z,26.12
2023-05-01T05:58:49.452Z,26.12
2023-05-01T05:59:49.473Z,26.09
2023-05-01T06:00:49.522Z,26.11
2023-05-01T06:01:49.597Z,26.11
2023-05-01T06:02:49.720Z,26.15
2023-05-01T06:03:49.728Z,26.11
2023-05-01T06:04:49.828Z,26.12
2023-05-01T06:05:49.748Z,26.11
2023-05-01T06:06:49.815Z,26.12
2023-05-01T06:07:49.823Z,26.11
2023-05-01T06:08:49.853Z,26.12
2023-05-01T06:09:49.893Z,26.12
2023-05-01T06:10:49.954Z,26.15
2023-05-01T06:11:50.065Z,26.14
2023-05-01T06:12:55.064Z,26.15
2023-05-01T06:13:51.000Z,26.14
2023-05-01T06:14:50.061Z,26.14
2023-05-01T06:15:50.155Z,26.14
2023-05-01T06:16:50.089Z,26.12
2023-05-01T06:17:50.130Z,26.09
2023-05-01T06:18:50.049Z,26.12
2023-05-01T06:19:50.110Z,26.09
2023-05-01T06:20:50.018Z,26.11
2023-05-01T06:21:50.140Z,26.11
2023-05-01T06:22:50.008Z,26.09
2023-05-01T06:23:49.982Z,26.12
2023-05-01T06:24:49.989Z,26.11
2023-05-01T06:25:49.997Z,26.08
2023-05-01T06:26:50.004Z,26.11
2023-05-01T06:27:50.016Z,26.08
2023-05-01T06:28:50.060Z,26.08
2023-05-01T06:29:50.142Z,26.09
2023-05-01T06:30:50.164Z,26.09
2023-05-01T06:31:50.378Z,26.11
2023-05-01T06:32:50.362Z,26.09
2023-05-01T06:33:50.246Z,26.09
2023-05-01T06:34:50.316Z,26.12
2023-05-01T06:35:50.332Z,26.11
2023-05-01T06:36:50.370Z,26.12
2023-05-01T06:37:50.409Z,26.11
2023-05-01T06:38:50.442Z,26.11
2023-05-01T06:39:50.503Z,26.12
2023-05-01T06:40:50.511Z,26.11
2023-05-01T06:41:50.548Z,26.12
2023-05-01T06:42:50.610Z,26.12
2023-05-01T06:43:50.618Z,26.12
2023-05-01T06:44:50.627Z,26.12
2023-05-01T06:45:50.693Z,26.14
2023-05-01T06:46:50.769Z,26.11
2023-05-01T06:47:50.849Z,26.12
2023-05-01T06:48:50.799Z,26.11
2023-05-01T06:49:50.816Z,26.15
2023-05-01T06:50:50.868Z,26.15
2023-05-01T06:51:50.919Z,26.15
2023-05-01T06:52:50.941Z,26.19
2023-05-01T06:53:50.976Z,26.16
2023-05-01T06:54:51.014Z,26.14
2023-05-01T06:55:51.058Z,26.16
2023-05-01T06:56:51.099Z,26.14
2023-05-01T06:57:51.088Z,26.15
2023-05-01T06:58:51.088Z,26.14
2023-05-01T06:59:51.083Z,26.16
2023-05-01T07:00:51.125Z,26.16
2023-05-01T07:01:51.087Z,26.15
2023-05-01T07:02:51.174Z,26.19
2023-05-01T07:03:51.076Z,26.16
2023-05-01T07:04:51.071Z,26.21
2023-05-01T07:05:51.044Z,26.21
2023-05-01T07:06:51.133Z,26.18
2023-05-01T07:08:00.832Z,26.19
2023-05-01T07:08:52.042Z,26.22
2023-05-01T07:09:51.038Z,26.18
2023-05-01T07:10:51.031Z,26.19
2023-05-01T07:11:51.000Z,26.22
2023-05-01T07:12:51.027Z,26.23
2023-05-01T07:13:51.023Z,26.21
2023-05-01T07:14:50.991Z,26.25
2023-05-01T07:15:53.879Z,26.22
2023-05-01T07:16:51.099Z,26.23
2023-05-01T07:17:51.029Z,26.23
2023-05-01T07:18:51.009Z,26.22
2023-05-01T07:19:50.965Z,26.23
2023-05-01T07:20:50.957Z,26.23
2023-05-01T07:21:50.967Z,26.22
2023-05-01T07:22:51.018Z,26.25
2023-05-01T07:23:50.941Z,26.26
2023-05-01T07:24:50.972Z,26.26
2023-05-01T07:25:50.955Z,26.28
2023-05-01T07:26:50.979Z,26.31
2023-05-01T07:27:50.994Z,26.29
2023-05-01T07:28:50.964Z,26.29
2023-05-01T07:29:50.971Z,26.29
2023-05-01T07:30:50.929Z,26.29
2023-05-01T07:31:50.956Z,26.32
2023-05-01T07:32:50.956Z,26.33
2023-05-01T07:33:51.220Z,26.32
2023-05-01T07:34:50.913Z,26.32
2023-05-01T07:35:50.894Z,26.32
2023-05-01T07:36:50.901Z,26.32
2023-05-01T07:37:50.928Z,26.33
2023-05-01T07:38:50.952Z,26.35
2023-05-01T07:39:50.876Z,26.38
2023-05-01T07:40:50.858Z,26.38
2023-05-01T07:41:50.863Z,26.36
2023-05-01T07:42:53.129Z,26.33
2023-05-01T07:43:50.843Z,26.36
2023-05-01T07:44:50.847Z,26.36
2023-05-01T07:45:50.851Z,26.38
2023-05-01T07:46:50.819Z,26.36
2023-05-01T07:47:50.855Z,26.38
2023-05-01T07:48:50.805Z,26.36
2023-05-01T07:49:50.796Z,26.36
2023-05-01T07:50:50.829Z,26.38
2023-05-01T07:51:50.794Z,26.38
2023-05-01T07:52:50.796Z,26.35
2023-05-01T07:53:50.828Z,26.38
2023-05-01T07:54:50.785Z,26.38
2023-05-01T07:55:50.775Z,26.40
2023-05-01T07:56:50.857Z,26.39
2023-05-01T07:57:50.758Z,26.39
2023-05-01T07:58:50.909Z,26.42
2023-05-01T07:59:50.740Z,26.40
2023-05-01T08:00:50.746Z,26.39
2023-05-01T08:01:50.760Z,26.39
2023-05-01T08:02:50.807Z,26.38
2023-05-01T08:03:51.193Z,26.39
2023-05-01T08:04:50.824Z,26.38
2023-05-01T08:05:50.739Z,26.36
2023-05-01T08:06:50.770Z,26.38
2023-05-01T08:07:50.719Z,26.38
2023-05-01T08:08:50.717Z,26.38
2023-05-01T08:09:50.696Z,26.38
2023-05-01T08:10:50.706Z,26.39
2023-05-01T08:11:50.680Z,26.36
2023-05-01T08:12:50.704Z,26.38
2023-05-01T08:13:50.701Z,26.40
2023-05-01T08:14:50.773Z,26.35
2023-05-01T08:15:50.786Z,26.38
2023-05-01T08:16:50.779Z,26.38
2023-05-01T08:17:50.838Z,26.42
2023-05-01T08:18:50.838Z,26.39
2023-05-01T08:19:50.834Z,26.39
2023-05-01T08:20:50.892Z,26.39
2023-05-01T08:21:50.879Z,26.43
2023-05-01T08:22:50.909Z,26.39
2023-05-01T08:23:50.965Z,26.40
2023-05-01T08:24:50.934Z,26.40
2023-05-01T08:26:50.976Z,26.40
2023-05-01T08:27:51.004Z,26.40
2023-05-01T08:28:51.072Z,26.39
2023-05-01T08:29:51.054Z,26.42
2023-05-01T08:30:51.045Z,26.38
2023-05-01T08:31:51.148Z,26.40
2023-05-01T08:32:51.116Z,26.40
2023-05-01T08:33:51.079Z,26.43
2023-05-01T08:34:51.114Z,26.42
2023-05-01T08:35:51.115Z,26.44
2023-05-01T08:36:51.139Z,26.42
2023-05-01T08:37:51.157Z,26.42
2023-05-01T08:38:51.160Z,26.43
2023-05-01T08:39:51.222Z,26.43
2023-05-01T08:40:51.208Z,26.43
2023-05-01T08:41:51.246Z,26.42
2023-05-01T08:42:51.265Z,26.40
2023-05-01T08:43:51.261Z,26.43
2023-05-01T08:44:51.304Z,26.46
2023-05-01T08:45:51.308Z,26.43
2023-05-01T08:46:51.337Z,26.42
2023-05-01T08:47:51.444Z,26.40
2023-05-01T08:48:51.356Z,26.40
2023-05-01T08:49:51.382Z,26.43
2023-05-01T08:50:51.415Z,26.43
2023-05-01T08:51:51.440Z,26.46
2023-05-01T08:52:51.451Z,26.51
2023-05-01T08:53:51.472Z,26.53
2023-05-01T08:54:51.508Z,26.57
2023-05-01T08:55:51.501Z,26.60
2023-05-01T08:56:51.530Z,26.61
2023-05-01T08:57:51.533Z,26.67
2023-05-01T08:58:51.528Z,26.71
2023-05-01T08:59:51.536Z,26.74
2023-05-01T09:00:51.529Z,26.74
2023-05-01T09:01:51.650Z,26.78
2023-05-01T09:02:51.584Z,26.80
2023-05-01T09:03:51.577Z,26.84
2023-05-01T09:04:51.553Z,26.87
2023-05-01T09:05:51.563Z,26.88
2023-05-01T09:06:51.623Z,26.93
2023-05-01T09:07:51.549Z,26.94
2023-05-01T09:08:51.590Z,26.95
2023-05-01T09:09:51.552Z,26.97
2023-05-01T09:10:51.562Z,26.99
2023-05-01T09:11:51.591Z,27.04
2023-05-01T09:12:51.700Z,27.04
2023-05-01T09:13:51.664Z,27.04
2023-05-01T09:14:51.757Z,27.06
2023-05-01T09:15:51.818Z,27.06
2023-05-01T09:16:51.859Z,27.09
2023-05-01T09:17:51.933Z,27.12
2023-05-01T09:18:51.934Z,27.11
2023-05-01T09:19:52.033Z,27.13
2023-05-01T09:20:52.058Z,27.12
2023-05-01T09:21:52.108Z,27.15
2023-05-01T09:22:52.176Z,27.15
2023-05-01T09:23:52.232Z,27.16
2023-05-01T09:24:52.309Z,27.18
2023-05-01T09:25:52.349Z,27.18
2023-05-01T09:26:52.416Z,27.21
2023-05-01T09:27:52.489Z,27.19
2023-05-01T09:28:52.545Z,27.19
2023-05-01T09:29:52.584Z,27.21
2023-05-01T09:30:52.661Z,27.21
2023-05-01T09:31:52.892Z,27.21
2023-05-01T09:32:52.890Z,27.24
2023-05-01T09:33:52.807Z,27.25
2023-05-01T09:34:52.878Z,27.25
2023-05-01T09:35:52.930Z,27.28
2023-05-01T09:36:52.960Z,27.26
2023-05-01T09:37:53.048Z,27.26
2023-05-01T09:38:53.068Z,27.28
2023-05-01T09:39:53.126Z,27.30
2023-05-01T09:40:53.188Z,27.28
2023-05-01T09:41:53.233Z,27.29
2023-05-01T09:42:53.305Z,27.29
2023-05-01T09:43:53.345Z,27.32
2023-05-01T09:44:53.395Z,27.30
2023-05-01T09:45:53.454Z,27.30
2023-05-01T09:46:53.378Z,27.33
2023-05-01T09:47:53.420Z,27.33
2023-05-01T09:48:53.339Z,27.33
2023-05-01T09:49:53.327Z,27.35
2023-05-01T09:50:53.320Z,27.36
2023-05-01T09:51:53.325Z,27.37
2023-05-01T09:52:53.314Z,27.36
2023-05-01T09:53:53.318Z,27.36
2023-05-01T09:54:53.289Z,27.39
2023-05-01T09:55:53.287Z,27.37
2023-05-01T09:56:53.342Z,27.40
2023-05-01T09:57:53.399Z,27.40
2023-05-01T09:58:53.449Z,27.42
2023-05-01T09:59:53.466Z,27.39
2023-05-01T10:00:53.585Z,27.43
2023-05-01T10:01:53.645Z,27.45
2023-05-01T10:02:53.764Z,27.42
2023-05-01T10:03:53.816Z,27.45
2023-05-01T10:04:53.661Z,27.45
2023-05-01T10:05:53.734Z,27.43
2023-05-01T10:06:53.805Z,27.47
2023-05-01T10:07:53.860Z,27.47
2023-05-01T10:08:53.820Z,27.47
2023-05-01T10:09:53.929Z,27.46
2023-05-01T10:10:53.921Z,27.50
2023-05-01T10:11:53.935Z,27.47
2023-05-01T10:12:53.996Z,27.52
2023-05-01T10:13:54.037Z,27.52
2023-05-01T10:14:54.068Z,27.50
2023-05-01T10:15:54.105Z,27.50
2023-05-01T10:16:54.210Z,27.54
2023-05-01T10:17:54.570Z,27.53
2023-05-01T10:18:54.203Z,27.53
2023-05-01T10:19:54.493Z,27.56
2023-05-01T10:20:54.264Z,27.56
2023-05-01T10:21:54.304Z,27.56
2023-05-01T10:22:54.337Z,27.57
2023-05-01T10:23:54.367Z,27.57
2023-05-01T10:24:54.417Z,27.56
2023-05-01T10:25:54.436Z,27.56
2023-05-01T10:26:54.468Z,27.57
2023-05-01T10:27:54.501Z,27.56
2023-05-01T10:28:54.531Z,27.57
2023-05-01T10:29:54.838Z,27.60
2023-05-01T10:30:54.640Z,27.58
2023-05-01T10:31:54.730Z,27.57
2023-05-01T10:32:54.666Z,27.58
2023-05-01T10:33:54.640Z,27.57
2023-05-01T10:34:54.924Z,27.60
2023-05-01T10:35:54.742Z,27.61
2023-05-01T10:36:54.714Z,27.60
2023-05-01T10:37:54.753Z,27.58
2023-05-01T10:38:54.770Z,27.63
2023-05-01T10:39:54.796Z,27.63
2023-05-01T10:40:54.822Z,27.64
2023-05-01T10:41:54.848Z,27.63
2023-05-01T10:42:54.942Z,27.65
2023-05-01T10:43:54.896Z,27.63
2023-05-01T10:44:55.111Z,27.65
2023-05-01T10:45:54.987Z,27.64
2023-05-01T10:46:55.129Z,27.65
2023-05-01T10:47:55.025Z,27.67
2023-05-01T10:48:55.023Z,27.65
2023-05-01T10:49:55.062Z,27.65
2023-05-01T10:50:55.104Z,27.67
2023-05-01T10:51:55.127Z,27.65
2023-05-01T10:52:55.154Z,27.65
2023-05-01T10:53:55.159Z,27.64
2023-05-01T10:54:55.415Z,27.65
2023-05-01T10:55:55.220Z,27.67
2023-05-01T10:56:55.283Z,27.68
2023-05-01T10:57:55.294Z,27.65
2023-05-01T10:58:55.310Z,27.67
2023-05-01T10:59:55.332Z,27.68
2023-05-01T11:00:55.350Z,27.67
2023-05-01T11:01:55.419Z,27.67
2023-05-01T11:02:55.448Z,27.68
2023-05-01T11:03:55.425Z,27.67
2023-05-01T11:04:55.626Z,27.68
2023-05-01T11:05:55.544Z,27.70
2023-05-01T11:06:55.528Z,27.70
2023-05-01T11:07:55.523Z,27.68
2023-05-01T11:08:55.548Z,27.71
2023-05-01T11:09:55.889Z,27.73
2023-05-01T11:10:55.583Z,27.74
2023-05-01T11:11:55.592Z,27.71
2023-05-01T11:12:55.622Z,27.73
2023-05-01T11:13:55.642Z,27.77
2023-05-01T11:14:56.007Z,27.77
2023-05-01T11:15:55.682Z,27.77
2023-05-01T11:16:55.749Z,27.79
2023-05-01T11:17:55.730Z,27.77
2023-05-01T11:18:55.712Z,27.80
2023-05-01T11:19:55.703Z,27.80
2023-05-01T11:20:55.724Z,27.79
2023-05-01T11:21:55.746Z,27.80
2023-05-01T11:22:55.752Z,27.80
2023-05-01T11:23:55.764Z,27.80
2023-05-01T11:24:55.978Z,27.83
2023-05-01T11:25:55.774Z,27.81
2023-05-01T11:26:55.784Z,27.84
2023-05-01T11:27:55.812Z,27.83
2023-05-01T11:28:55.832Z,27.85
2023-05-01T11:29:55.848Z,27.85
2023-05-01T11:30:55.854Z,27.84
2023-05-01T11:31:55.924Z,27.87
2023-05-01T11:32:55.908Z,27.87
2023-05-01T11:33:55.890Z,27.90
2023-05-01T11:34:56.142Z,27.90
2023-05-01T11:35:55.896Z,27.91
2023-05-01T11:36:55.887Z,27.91
2023-05-01T11:37:55.935Z,27.91
2023-05-01T11:38:55.898Z,27.92
2023-05-01T11:39:55.910Z,27.91
2023-05-01T11:40:55.911Z,27.94
2023-05-01T11:41:55.933Z,27.94
2023-05-01T11:42:55.870Z,27.95
2023-05-01T11:43:55.864Z,27.95
2023-05-01T11:44:55.966Z,27.94
2023-05-01T11:45:55.893Z,27.98
2023-05-01T11:46:55.811Z,27.98
2023-05-01T11:47:55.841Z,27.99
2023-05-01T11:48:55.785Z,28.01
2023-05-01T11:49:55.795Z,28.01
2023-05-01T11:50:55.741Z,28.02
2023-05-01T11:51:55.797Z,28.02
2023-05-01T11:52:55.805Z,28.07
2023-05-01T11:53:55.762Z,28.08
2023-05-01T11:54:55.714Z,28.08
2023-05-01T11:55:55.705Z,28.08
2023-05-01T11:56:55.670Z,28.09
2023-05-01T11:57:55.677Z,28.09
2023-05-01T11:58:55.649Z,28.08
2023-05-01T11:59:55.641Z,28.12
2023-05-01T12:00:55.653Z,28.12
2023-05-01T12:01:55.645Z,28.09
2023-05-01T12:02:55.675Z,28.12
2023-05-01T12:03:55.680Z,28.13
2023-05-01T12:04:55.772Z,28.16
2023-05-01T12:05:55.570Z,28.13
2023-05-01T12:06:55.552Z,28.13
2023-05-01T12:07:55.537Z,28.18
2023-05-01T12:08:55.511Z,28.16
2023-05-01T12:09:55.512Z,28.18
2023-05-01T12:10:55.486Z,28.16
2023-05-01T12:11:55.463Z,28.20
2023-05-01T12:12:55.443Z,28.18
2023-05-01T12:13:55.443Z,28.19
2023-05-01T12:14:55.539Z,28.22
2023-05-01T12:15:55.454Z,28.23
2023-05-01T12:16:55.437Z,28.23
2023-05-01T12:17:55.414Z,28.23
2023-05-01T12:18:55.337Z,28.22
2023-05-01T12:19:55.338Z,28.25
2023-05-01T12:20:55.318Z,28.25
2023-05-01T12:21:55.355Z,28.23
2023-05-01T12:22:55.311Z,28.22
2023-05-01T12:23:55.285Z,28.23
2023-05-01T12:24:55.279Z,28.27
2023-05-01T12:25:55.247Z,28.26
2023-05-01T12:26:55.220Z,28.26
2023-05-01T12:27:55.237Z,28.27
2023-05-01T12:28:55.203Z,28.27
2023-05-01T12:29:55.183Z,28.29
2023-05-01T12:30:55.167Z,28.30
2023-05-01T12:31:55.207Z,28.30
2023-05-01T12:32:55.229Z,28.30
2023-05-01T12:33:55.127Z,28.30
2023-05-01T12:34:55.116Z,28.32
2023-05-01T12:35:55.069Z,28.32
2023-05-01T12:36:55.149Z,28.32
2023-05-01T12:37:55.066Z,28.35
2023-05-01T12:38:55.018Z,28.33
2023-05-01T12:39:54.991Z,28.35
2023-05-01T12:40:54.968Z,28.35
2023-05-01T12:41:54.973Z,28.38
2023-05-01T12:42:54.951Z,28.35
2023-05-01T12:43:54.898Z,28.38
2023-05-01T12:44:54.886Z,28.39
2023-05-01T12:45:54.958Z,28.38
2023-05-01T12:46:54.869Z,28.40
2023-05-01T12:47:54.884Z,28.40
2023-05-01T12:48:54.908Z,28.39
2023-05-01T12:49:54.935Z,28.42
2023-05-01T12:50:55.119Z,28.39
2023-05-01T12:51:55.010Z,28.40
2023-05-01T12:52:55.057Z,28.40
2023-05-01T12:53:55.114Z,28.42